createdAt,value
2022-09-29T00:00:36.297Z,6.00
2022-09-29T00:03:06.315Z,6.30
2022-09-29T00:05:34.393Z,6.87
2022-09-29T00:08:02.615Z,6.80
2022-09-29T00:10:30.581Z,6.63
2022-09-29T00:12:58.552Z,6.10
2022-09-29T00:15:26.503Z,6.13
2022-09-29T00:18:13.977Z,6.47
2022-09-29T00:20:43.723Z,6.80
2022-09-29T00:23:11.648Z,6.73
2022-09-29T00:25:39.625Z,6.53
2022-09-29T00:28:07.547Z,6.33
2022-09-29T00:30:35.482Z,6.33
2022-09-29T00:33:03.451Z,5.50
2022-09-29T00:35:31.397Z,5.83
2022-09-29T00:38:00.674Z,5.70
2022-09-29T00:40:28.716Z,5.87
2022-09-29T00:42:56.684Z,6.07
2022-09-29T00:45:25.584Z,6.00
2022-09-29T00:48:07.034Z,5.93
2022-09-29T00:50:41.319Z,6.47
2022-09-29T00:53:13.377Z,7.77
2022-09-29T00:55:46.975Z,6.90
2022-09-29T00:58:29.728Z,7.23
2022-09-29T01:00:58.094Z,8.13
2022-09-29T01:03:30.013Z,8.23
2022-09-29T01:06:02.236Z,8.07
2022-09-29T01:08:38.072Z,8.33
2022-09-29T01:11:06.540Z,8.20
2022-09-29T01:13:35.594Z,8.23
2022-09-29T01:16:03.689Z,8.70
2022-09-29T01:18:33.097Z,8.73
2022-09-29T01:21:13.138Z,8.47
2022-09-29T01:24:20.031Z,8.20
2022-09-29T01:27:14.884Z,7.63
2022-09-29T01:30:06.427Z,7.83
2022-09-29T01:32:45.480Z,8.10
2022-09-29T01:35:19.607Z,7.50
2022-09-29T01:38:03.408Z,7.97
2022-09-29T01:40:40.456Z,7.97
2022-09-29T01:43:14.025Z,7.63
2022-09-29T01:45:48.161Z,7.53
2022-09-29T01:48:22.400Z,7.37
2022-09-29T01:50:54.677Z,7.67
2022-09-29T01:53:27.478Z,7.90
2022-09-29T01:56:10.443Z,7.63
2022-09-29T01:58:43.785Z,7.73
2022-09-29T02:01:14.957Z,7.77
2022-09-29T02:03:49.976Z,7.93
2022-09-29T02:06:22.655Z,7.07
2022-09-29T02:08:54.200Z,7.50
2022-09-29T02:11:22.539Z,7.50
2022-09-29T02:13:54.031Z,7.80
2022-09-29T02:16:27.606Z,6.73
2022-09-29T02:19:01.587Z,7.80
2022-09-29T02:21:29.846Z,8.13
2022-09-29T02:23:58.515Z,9.63
2022-09-29T02:26:29.771Z,9.30
2022-09-29T02:28:57.979Z,8.37
2022-09-29T02:31:26.205Z,8.97
2022-09-29T02:33:54.206Z,8.00
2022-09-29T02:36:34.865Z,8.57
2022-09-29T02:39:06.419Z,8.40
2022-09-29T02:41:42.106Z,7.93
2022-09-29T02:44:26.724Z,8.70
2022-09-29T02:47:20.732Z,8.20
2022-09-29T02:50:07.834Z,8.13
2022-09-29T02:52:50.829Z,8.17
2022-09-29T02:55:21.914Z,8.13
2022-09-29T02:57:55.025Z,7.77
2022-09-29T03:00:23.804Z,7.90
2022-09-29T03:02:51.744Z,8.13
2022-09-29T03:05:22.570Z,8.37
2022-09-29T03:07:51.895Z,7.53
2022-09-29T03:10:20.487Z,7.00
2022-09-29T03:12:48.586Z,6.70
2022-09-29T03:15:17.882Z,6.70
2022-09-29T03:17:45.915Z,6.80
2022-09-29T03:20:13.851Z,7.17
2022-09-29T03:22:41.808Z,6.40
2022-09-29T03:25:12.847Z,6.30
2022-09-29T03:27:40.844Z,6.77
2022-09-29T03:30:10.347Z,7.30
2022-09-29T03:32:38.275Z,7.20
2022-09-29T03:35:07.666Z,6.90
2022-09-29T03:37:35.622Z,7.17
2022-09-29T03:40:04.011Z,6.67
2022-09-29T03:42:33.594Z,7.03
2022-09-29T03:45:01.570Z,6.97
2022-09-29T03:47:29.544Z,7.20
2022-09-29T03:49:57.512Z,6.83
2022-09-29T03:52:25.528Z,7.23
2022-09-29T03:54:53.483Z,7.60
2022-09-29T03:57:21.443Z,6.57
2022-09-29T03:59:51.088Z,7.47
2022-09-29T04:02:19.828Z,6.23
2022-09-29T04:04:47.906Z,6.57
2022-09-29T04:07:15.887Z,7.20
2022-09-29T04:09:43.926Z,7.63
2022-09-29T04:12:11.880Z,7.30
2022-09-29T04:14:39.880Z,7.20
2022-09-29T04:17:09.177Z,6.90
2022-09-29T04:19:37.108Z,6.73
2022-09-29T04:22:05.048Z,7.23
2022-09-29T04:24:32.994Z,6.97
2022-09-29T04:27:00.954Z,5.80
2022-09-29T04:29:28.883Z,5.90
2022-09-29T04:31:56.871Z,6.47
2022-09-29T04:34:26.222Z,5.90
2022-09-29T04:36:54.351Z,6.60
2022-09-29T04:39:22.612Z,6.43
2022-09-29T04:41:50.574Z,5.90
2022-09-29T04:44:20.268Z,5.80
2022-09-29T04:46:48.220Z,5.53
2022-09-29T04:49:16.187Z,5.70
2022-09-29T04:51:45.514Z,5.70
2022-09-29T04:54:13.502Z,5.50
2022-09-29T04:56:41.476Z,6.10
2022-09-29T04:59:10.547Z,6.30
2022-09-29T05:01:38.514Z,6.30
2022-09-29T05:04:06.455Z,6.40
2022-09-29T05:06:39.293Z,6.07
2022-09-29T05:09:09.103Z,6.53
2022-09-29T05:11:37.119Z,6.37
2022-09-29T05:14:05.432Z,6.63
2022-09-29T05:16:33.842Z,6.70
2022-09-29T05:19:01.809Z,6.27
2022-09-29T05:21:29.970Z,6.23
2022-09-29T05:23:58.099Z,6.90
2022-09-29T05:26:27.563Z,6.53
2022-09-29T05:28:55.691Z,7.17
2022-09-29T05:31:23.708Z,6.60
2022-09-29T05:33:52.033Z,7.17
2022-09-29T05:36:19.991Z,8.13
2022-09-29T05:38:48.698Z,8.20
2022-09-29T05:41:18.534Z,8.77
2022-09-29T05:43:48.010Z,8.63
2022-09-29T05:46:16.905Z,9.77
2022-09-29T05:48:44.927Z,9.83
2022-09-29T05:51:15.943Z,9.73
2022-09-29T05:53:45.431Z,9.07
2022-09-29T05:56:15.037Z,9.87
2022-09-29T05:58:43.698Z,9.47
2022-09-29T06:01:15.294Z,9.93
2022-09-29T06:03:43.647Z,9.07
2022-09-29T06:06:14.057Z,8.60
2022-09-29T06:08:42.373Z,9.50
2022-09-29T06:11:12.000Z,9.37
2022-09-29T06:13:40.643Z,8.80
2022-09-29T06:16:08.973Z,8.00
2022-09-29T06:19:06.926Z,8.23
2022-09-29T06:21:37.737Z,7.27
2022-09-29T06:24:07.221Z,7.30
2022-09-29T06:26:35.363Z,8.00
2022-09-29T06:29:03.329Z,7.33
2022-09-29T06:31:32.818Z,7.47
2022-09-29T06:34:02.247Z,6.80
2022-09-29T06:36:52.936Z,8.07
2022-09-29T06:39:21.255Z,8.10
2022-09-29T06:41:53.457Z,8.03
2022-09-29T06:44:22.153Z,7.97
2022-09-29T06:46:51.178Z,7.87
2022-09-29T06:49:19.635Z,7.50
2022-09-29T06:51:49.063Z,7.20
2022-09-29T06:54:18.956Z,6.70
2022-09-29T06:56:48.723Z,7.70
2022-09-29T06:59:17.676Z,6.43
2022-09-29T07:01:50.917Z,7.17
2022-09-29T07:04:21.027Z,7.87
2022-09-29T07:06:51.839Z,7.57
2022-09-29T07:09:20.676Z,6.80
2022-09-29T07:11:50.998Z,6.27
2022-09-29T07:14:20.461Z,7.77
2022-09-29T07:16:48.989Z,7.10
2022-09-29T07:19:18.394Z,7.50
2022-09-29T07:21:48.565Z,7.40
2022-09-29T07:24:17.973Z,7.73
2022-09-29T07:26:45.987Z,8.67
2022-09-29T07:29:21.406Z,9.87
2022-09-29T07:31:52.702Z,10.43
2022-09-29T07:34:21.516Z,9.40
2022-09-29T07:36:49.903Z,8.37
2022-09-29T07:39:21.147Z,8.53
2022-09-29T07:41:49.286Z,9.57
2022-09-29T07:44:17.288Z,8.40
2022-09-29T07:46:45.260Z,9.40
2022-09-29T07:49:13.252Z,9.40
2022-09-29T07:51:41.368Z,10.40
2022-09-29T07:54:09.523Z,10.27
2022-09-29T07:56:39.221Z,10.40
2022-09-29T07:59:07.175Z,10.23
2022-09-29T08:01:35.415Z,10.50
2022-09-29T08:04:03.758Z,9.03
2022-09-29T08:06:33.189Z,8.60
2022-09-29T08:09:05.115Z,9.67
2022-09-29T08:11:35.036Z,8.83
2022-09-29T08:14:04.469Z,9.50
2022-09-29T08:16:32.756Z,8.43
2022-09-29T08:19:01.007Z,8.43
2022-09-29T08:21:29.865Z,7.20
2022-09-29T08:23:57.840Z,7.13
2022-09-29T08:26:38.822Z,7.20
2022-09-29T08:29:15.917Z,6.75
2022-09-29T08:31:45.469Z,5.03
2022-09-29T08:34:15.514Z,5.57
2022-09-29T08:36:43.821Z,5.25
2022-09-29T08:39:12.600Z,6.53
2022-09-29T08:41:51.452Z,7.32
2022-09-29T08:44:37.862Z,7.30
2022-09-29T08:47:15.426Z,7.90
2022-09-29T08:49:48.015Z,7.17
2022-09-29T08:52:20.240Z,6.20
2022-09-29T08:54:50.992Z,6.50
2022-09-29T08:57:21.094Z,6.15
2022-09-29T08:59:58.120Z,5.53
2022-09-29T09:02:57.562Z,6.60
2022-09-29T09:05:36.662Z,6.30
2022-09-29T09:08:10.060Z,6.83
2022-09-29T09:10:47.096Z,7.35
2022-09-29T09:13:33.629Z,6.50
2022-09-29T09:16:22.339Z,5.47
2022-09-29T09:19:05.513Z,5.78
2022-09-29T09:21:42.383Z,6.80
2022-09-29T09:24:20.394Z,8.10
2022-09-29T09:26:51.967Z,4.97
2022-09-29T09:29:26.556Z,4.72
2022-09-29T09:32:01.989Z,4.57
2022-09-29T09:34:43.738Z,4.20
2022-09-29T09:37:17.963Z,4.00
2022-09-29T09:39:50.159Z,4.05
2022-09-29T09:42:22.336Z,4.00
2022-09-29T09:44:53.710Z,4.13
2022-09-29T09:47:28.968Z,4.40
2022-09-29T09:50:00.637Z,4.38
2022-09-29T09:52:32.412Z,4.35
2022-09-29T09:55:04.556Z,5.05
2022-09-29T09:57:52.986Z,3.72
2022-09-29T10:00:24.846Z,3.90
2022-09-29T10:02:56.395Z,4.50
2022-09-29T10:05:27.759Z,4.10
2022-09-29T10:07:56.986Z,3.95
2022-09-29T10:10:27.758Z,4.43
2022-09-29T10:13:00.203Z,4.00
2022-09-29T10:15:33.829Z,3.40
2022-09-29T10:18:07.702Z,3.95
2022-09-29T10:20:38.048Z,4.20
2022-09-29T10:23:21.608Z,4.13
2022-09-29T10:25:56.337Z,4.40
2022-09-29T10:28:25.450Z,4.40
2022-09-29T10:30:55.570Z,4.35
2022-09-29T10:33:27.216Z,4.40
2022-09-29T10:36:09.296Z,4.35
2022-09-29T10:38:38.536Z,4.30
2022-09-29T10:41:08.956Z,5.32
2022-09-29T10:43:39.544Z,5.22
2022-09-29T10:46:28.306Z,4.63
2022-09-29T10:49:13.656Z,4.88
2022-09-29T10:51:43.696Z,4.20
2022-09-29T10:54:16.818Z,3.92
2022-09-29T10:56:49.076Z,5.22
2022-09-29T10:59:18.362Z,4.45
2022-09-29T11:01:50.269Z,4.68
2022-09-29T11:04:23.902Z,4.70
2022-09-29T11:06:52.806Z,4.30
2022-09-29T11:09:36.621Z,4.53
2022-09-29T11:12:09.370Z,4.38
2022-09-29T11:14:42.661Z,4.53
2022-09-29T11:17:22.898Z,4.35
2022-09-29T11:19:53.351Z,4.27
2022-09-29T11:23:00.343Z,4.50
2022-09-29T11:25:48.784Z,4.70
2022-09-29T11:28:41.451Z,4.18
2022-09-29T11:31:24.783Z,4.53
2022-09-29T11:34:06.179Z,3.80
2022-09-29T11:36:44.809Z,4.43
2022-09-29T11:39:23.920Z,3.80
2022-09-29T11:42:06.601Z,4.22
2022-09-29T11:44:59.264Z,4.28
2022-09-29T11:47:49.937Z,4.22
2022-09-29T11:50:32.664Z,3.67
2022-09-29T11:53:24.413Z,3.95
2022-09-29T11:56:04.143Z,4.00
2022-09-29T11:58:58.405Z,3.90
2022-09-29T12:01:46.934Z,3.80
2022-09-29T12:04:29.868Z,3.65
2022-09-29T12:07:06.520Z,4.03
2022-09-29T12:10:04.881Z,3.88
2022-09-29T12:12:43.046Z,3.70
2022-09-29T12:15:22.629Z,3.90
2022-09-29T12:17:54.641Z,3.60
2022-09-29T12:20:25.536Z,4.00
2022-09-29T12:22:55.772Z,4.03
2022-09-29T12:25:27.840Z,4.10
2022-09-29T12:28:00.123Z,4.30
2022-09-29T12:30:30.464Z,4.53
2022-09-29T12:33:05.957Z,4.40
2022-09-29T12:35:39.914Z,4.80
2022-09-29T12:38:16.604Z,5.33
2022-09-29T12:40:51.314Z,5.83
2022-09-29T12:43:24.111Z,7.60
2022-09-29T12:45:59.565Z,7.10
2022-09-29T12:48:41.744Z,5.78
2022-09-29T12:51:14.538Z,5.65
2022-09-29T12:53:54.216Z,6.07
2022-09-29T12:56:27.515Z,5.90
2022-09-29T12:59:03.001Z,6.57
2022-09-29T13:01:33.610Z,6.05
2022-09-29T13:04:32.578Z,6.43
2022-09-29T13:07:41.042Z,6.20
2022-09-29T13:10:23.483Z,6.30
2022-09-29T13:13:21.670Z,6.47
2022-09-29T13:16:03.389Z,6.37
2022-09-29T13:19:00.090Z,6.50
2022-09-29T13:21:45.009Z,6.07
2022-09-29T13:24:29.900Z,6.22
2022-09-29T13:27:17.267Z,5.47
2022-09-29T13:29:51.595Z,5.60
2022-09-29T13:32:20.191Z,5.72
2022-09-29T13:34:54.211Z,4.95
2022-09-29T13:37:25.844Z,5.47
2022-09-29T13:40:01.507Z,5.50
2022-09-29T13:42:43.816Z,5.70
2022-09-29T13:45:41.331Z,6.63
2022-09-29T13:48:37.698Z,6.13
2022-09-29T13:51:41.155Z,5.72
2022-09-29T13:54:36.855Z,5.45
2022-09-29T13:57:29.010Z,5.70
2022-09-29T14:00:26.870Z,6.10
2022-09-29T14:03:22.386Z,6.37
2022-09-29T14:06:17.150Z,5.60
2022-09-29T14:08:55.731Z,6.30
2022-09-29T14:11:29.087Z,5.93
2022-09-29T14:14:02.569Z,5.20
2022-09-29T14:16:46.938Z,5.80
2022-09-29T14:19:31.360Z,5.27
2022-09-29T14:22:00.938Z,5.70
2022-09-29T14:24:45.543Z,5.33
2022-09-29T14:27:32.729Z,4.88
2022-09-29T14:30:16.760Z,4.50
2022-09-29T14:32:54.719Z,4.93
2022-09-29T14:35:28.487Z,4.95
2022-09-29T14:38:03.543Z,4.90
2022-09-29T14:40:31.779Z,4.63
2022-09-29T14:43:17.299Z,4.33
2022-09-29T14:46:25.831Z,5.07
2022-09-29T14:49:27.671Z,5.10
2022-09-29T14:52:04.041Z,4.70
2022-09-29T14:54:43.363Z,5.05
2022-09-29T14:57:33.159Z,5.38
2022-09-29T15:00:12.304Z,5.25
2022-09-29T15:02:44.621Z,4.72
2022-09-29T15:05:30.995Z,4.80
2022-09-29T15:08:00.305Z,5.25
2022-09-29T15:10:30.622Z,5.23
2022-09-29T15:13:20.117Z,5.20
2022-09-29T15:15:50.253Z,5.07
2022-09-29T15:18:34.580Z,4.95
2022-09-29T15:21:11.330Z,4.53
2022-09-29T15:24:05.052Z,5.00
2022-09-29T15:26:34.781Z,4.90
2022-09-29T15:29:07.051Z,4.80
2022-09-29T15:31:36.598Z,4.60
2022-09-29T15:34:05.436Z,4.50
2022-09-29T15:36:37.713Z,4.90
2022-09-29T15:39:07.826Z,4.70
2022-09-29T15:41:36.682Z,4.60
2022-09-29T15:44:18.069Z,4.60
2022-09-29T15:46:51.563Z,4.77
2022-09-29T15:49:21.322Z,5.10
2022-09-29T15:51:59.253Z,4.50
2022-09-29T15:54:31.675Z,4.80
2022-09-29T15:57:17.262Z,4.47
2022-09-29T15:59:51.609Z,4.50
2022-09-29T16:02:23.847Z,4.97
2022-09-29T16:04:55.971Z,4.87
2022-09-29T16:07:29.326Z,4.77
2022-09-29T16:10:04.887Z,4.87
2022-09-29T16:12:38.504Z,5.93
2022-09-29T16:15:08.016Z,6.00
2022-09-29T16:17:36.125Z,6.80
2022-09-29T16:20:04.600Z,6.20
2022-09-29T16:22:34.033Z,6.60
2022-09-29T16:25:24.375Z,6.63
2022-09-29T16:27:57.226Z,7.00
2022-09-29T16:30:27.641Z,7.03
2022-09-29T16:32:58.558Z,7.20
2022-09-29T16:35:40.504Z,7.03
2022-09-29T16:38:34.342Z,7.93
2022-09-29T16:41:10.576Z,7.90
2022-09-29T16:43:40.851Z,7.53
2022-09-29T16:46:10.414Z,7.27
2022-09-29T16:48:43.586Z,8.17
2022-09-29T16:54:06.533Z,8.43
2022-09-29T16:56:36.061Z,8.17
2022-09-29T16:59:11.387Z,8.23
2022-09-29T17:01:41.107Z,7.90
2022-09-29T17:04:09.472Z,7.80
2022-09-29T17:06:38.032Z,7.73
2022-09-29T17:09:07.665Z,7.90
2022-09-29T17:11:35.684Z,7.43
2022-09-29T17:14:03.999Z,7.67
2022-09-29T17:16:31.999Z,7.90
2022-09-29T17:19:01.187Z,7.63
2022-09-29T17:21:30.287Z,7.67
2022-09-29T17:24:00.400Z,7.60
2022-09-29T17:26:54.974Z,7.20
2022-09-29T17:29:22.907Z,7.80
2022-09-29T17:31:51.056Z,7.63
2022-09-29T17:34:27.140Z,7.67
2022-09-29T17:36:55.613Z,7.27
2022-09-29T17:39:23.555Z,7.83
2022-09-29T17:41:52.918Z,7.60
2022-09-29T17:44:20.884Z,8.30
2022-09-29T17:46:48.882Z,8.13
2022-09-29T17:49:19.041Z,8.17
2022-09-29T17:51:47.002Z,8.30
2022-09-29T17:54:14.919Z,7.67
2022-09-29T17:56:43.983Z,8.83
2022-09-29T17:59:14.317Z,8.50
2022-09-29T18:01:42.372Z,8.60
2022-09-29T18:04:11.433Z,9.17
2022-09-29T18:06:39.406Z,10.07
2022-09-29T18:09:16.006Z,10.23
2022-09-29T18:11:44.326Z,9.83
2022-09-29T18:14:13.668Z,9.53
2022-09-29T18:16:41.603Z,10.60
2022-09-29T18:19:17.172Z,10.17
2022-09-29T18:21:45.248Z,15.17
2022-09-29T18:24:13.241Z,13.70
2022-09-29T18:26:45.003Z,14.13
2022-09-29T18:29:19.003Z,15.40
2022-09-29T18:31:47.137Z,16.60
2022-09-29T18:34:17.314Z,19.43
2022-09-29T18:36:46.365Z,19.47
2022-09-29T18:39:15.902Z,21.80
2022-09-29T18:41:43.871Z,21.20
2022-09-29T18:44:18.891Z,21.00
2022-09-29T18:46:47.499Z,21.33
2022-09-29T18:50:39.301Z,19.50
2022-09-29T18:53:07.461Z,24.47
2022-09-29T18:55:35.658Z,23.87
2022-09-29T18:58:03.641Z,25.17
2022-09-29T19:00:34.008Z,25.17
2022-09-29T19:03:02.825Z,22.30
2022-09-29T19:05:31.873Z,21.77
2022-09-29T19:08:03.165Z,20.07
2022-09-29T19:10:33.471Z,23.03
2022-09-29T19:13:04.200Z,23.30
2022-09-29T19:15:35.498Z,23.87
2022-09-29T19:18:05.290Z,24.63
2022-09-29T19:20:33.269Z,20.63
2022-09-29T19:23:03.571Z,22.50
2022-09-29T19:25:34.012Z,24.63
2022-09-29T19:28:05.063Z,25.20
2022-09-29T19:30:35.628Z,24.20
2022-09-29T19:33:03.747Z,26.77
2022-09-29T19:35:31.905Z,27.70
2022-09-29T19:37:59.999Z,27.23
2022-09-29T19:40:34.646Z,24.70
2022-09-29T19:43:05.585Z,25.77
2022-09-29T19:45:38.093Z,23.63
2022-09-29T19:48:06.483Z,24.90
2022-09-29T19:50:52.077Z,23.60
2022-09-29T19:53:20.192Z,22.30
2022-09-29T19:55:50.162Z,22.03
2022-09-29T19:58:18.100Z,21.53
2022-09-29T20:00:46.079Z,19.03
2022-09-29T20:03:14.045Z,19.87
2022-09-29T20:05:42.294Z,20.37
2022-09-29T20:08:10.255Z,18.10
2022-09-29T20:10:38.242Z,18.30
2022-09-29T20:13:08.482Z,18.07
2022-09-29T20:15:37.064Z,17.43
2022-09-29T20:18:05.191Z,18.90
2022-09-29T20:20:33.280Z,17.83
2022-09-29T20:23:02.109Z,17.53
2022-09-29T20:25:30.098Z,18.03
2022-09-29T20:27:59.018Z,17.60
2022-09-29T20:30:28.405Z,17.93
2022-09-29T20:32:56.360Z,18.90
2022-09-29T20:35:24.314Z,18.20
2022-09-29T20:37:52.255Z,18.40
2022-09-29T20:40:20.778Z,21.63
2022-09-29T20:42:48.764Z,24.30
2022-09-29T20:45:17.247Z,23.83
2022-09-29T20:47:46.729Z,21.67
2022-09-29T20:50:14.702Z,23.17
2022-09-29T20:52:42.761Z,25.70
2022-09-29T20:55:12.066Z,22.83
2022-09-29T20:57:45.407Z,22.00
2022-09-29T21:00:14.405Z,20.83
2022-09-29T21:02:42.409Z,20.83
2022-09-29T21:05:11.810Z,19.77
2022-09-29T21:07:40.295Z,19.53
2022-09-29T21:10:09.966Z,19.60
2022-09-29T21:12:38.340Z,17.87
2022-09-29T21:15:07.187Z,18.87
2022-09-29T21:17:35.179Z,21.33
2022-09-29T21:20:03.338Z,20.30
2022-09-29T21:22:32.628Z,21.80
2022-09-29T21:25:00.548Z,23.00
2022-09-29T21:27:29.029Z,23.47
2022-09-29T21:29:57.008Z,22.43
2022-09-29T21:32:24.974Z,23.70
2022-09-29T21:34:52.919Z,24.37
2022-09-29T21:37:20.903Z,25.23
2022-09-29T21:39:50.215Z,25.53
2022-09-29T21:42:18.201Z,25.80
2022-09-29T21:44:46.279Z,25.47
2022-09-29T21:47:14.217Z,24.10
2022-09-29T21:49:42.926Z,21.83
2022-09-29T21:52:10.904Z,19.73
2022-09-29T21:54:38.862Z,20.30
2022-09-29T21:57:10.045Z,20.57
2022-09-29T21:59:37.974Z,21.20
2022-09-29T22:02:06.059Z,20.47
2022-09-29T22:04:34.034Z,20.27
2022-09-29T22:07:01.997Z,20.27
2022-09-29T22:09:31.027Z,19.60
2022-09-29T22:11:59.262Z,19.90
2022-09-29T22:14:28.722Z,20.97
2022-09-29T22:16:56.690Z,20.83
2022-09-29T22:19:32.491Z,19.63
2022-09-29T22:22:00.648Z,19.20
2022-09-29T22:24:28.883Z,19.70
2022-09-29T22:26:56.954Z,20.67
2022-09-29T22:29:25.261Z,20.53
2022-09-29T22:31:54.699Z,19.03
2022-09-29T22:34:22.699Z,19.63
2022-09-29T22:36:51.291Z,21.17
2022-09-29T22:39:19.479Z,22.00
2022-09-29T22:41:48.119Z,21.40
2022-09-29T22:44:16.589Z,21.97
2022-09-29T22:46:44.573Z,21.67
2022-09-29T22:49:14.047Z,22.80
2022-09-29T22:51:42.171Z,21.60
2022-09-29T22:54:10.165Z,22.83
2022-09-29T22:56:39.901Z,24.03
2022-09-29T22:59:07.867Z,24.73
2022-09-29T23:01:35.919Z,25.67
2022-09-29T23:04:04.900Z,24.27
2022-09-29T23:06:34.474Z,23.40
2022-09-29T23:09:02.473Z,24.50
2022-09-29T23:11:31.298Z,23.27
2022-09-29T23:14:00.292Z,22.50
2022-09-29T23:16:28.433Z,24.50
2022-09-29T23:18:58.660Z,24.00
2022-09-29T23:21:27.250Z,23.90
2022-09-29T23:23:59.527Z,25.17
2022-09-29T23:26:29.229Z,23.47
2022-09-29T23:28:58.616Z,25.73
2022-09-29T23:31:26.897Z,25.87
2022-09-29T23:33:55.879Z,25.73
2022-09-29T23:36:25.288Z,26.07
2022-09-29T23:39:10.636Z,28.40
2022-09-29T23:41:42.244Z,29.20
2022-09-29T23:44:11.437Z,29.63
2022-09-29T23:46:41.010Z,30.50
2022-09-29T23:49:10.662Z,30.40
2022-09-29T23:51:40.139Z,30.13
2022-09-29T23:54:09.477Z,31.63
2022-09-29T23:56:39.274Z,27.33
2022-09-29T23:59:07.924Z,28.83
